Terminal Aerodrome Forecast
Issued by NWS

Home | Current Version | Previous Version | Text Only | Print | Product List | Glossary On
Versions: 1 2 3 4 5 6 7 8 9 10 11 12 13 14 15 16
000
FTUS44 KLZK 290544
TAFLLQ
TAF
KLLQ 290544Z 2906/3006 09003KT P6SM SCT120 BKN250
     FM290900 10003KT P6SM SCT050 OVC100
     FM291100 10004KT P6SM SCT015 OVC040
      TEMPO 2911/2915 3SM TSRA BR BKN015CB
     FM291500 14007KT 4SM TSRA BR OVC015CB
     FM292200 15007KT P6SM VCTS SCT025CB BKN060
     FM300200 16008KT 5SM -TSRA BR OVC025CB=

USA.gov is the U.S. government's official web portal to all federal, state and local government web resources and services.